Time;durP1;ratioP1;P1;durP2;ratioP2;P2;SDS_P1;SDS_P2;PMS_P1;PMS_P2;Temp;Humidity;BMP_temperature;BMP_pressure;BME280_temperature;BME280_humidity;BME280_pressure;Samples;Min_cycle;Max_cycle;Signal;HPM_P1;HPM_P2
2024/04/14 00:00:47;;;;;;;2.80;2.60;;;19.40;99.90;;;;;;5490097;25;21093;-72
2024/04/14 00:03:16;;;;;;;3.57;3.27;;;19.40;99.90;;;;;;5474423;25;20473;-72
2024/04/14 00:05:45;;;;;;;5.93;4.33;;;19.40;99.90;;;;;;5489981;25;20963;-72
2024/04/14 00:08:14;;;;;;;4.57;2.60;;;19.40;99.90;;;;;;5489252;25;20631;-72
2024/04/14 00:10:40;;;;;;;2.57;2.37;;;19.40;99.90;;;;;;5490106;25;20553;-72
2024/04/14 00:13:12;;;;;;;12.47;6.97;;;19.40;99.90;;;;;;5489661;25;20576;-72
2024/04/14 00:15:37;;;;;;;10.70;8.73;;;19.40;99.90;;;;;;5489823;26;20577;-73
2024/04/14 00:18:06;;;;;;;3.97;3.67;;;19.40;99.90;;;;;;5489498;25;20489;-72
2024/04/14 00:20:32;;;;;;;4.40;4.00;;;19.40;99.90;;;;;;5489730;25;20549;-72
2024/04/14 00:23:03;;;;;;;2.60;2.40;;;19.40;99.90;;;;;;5489403;25;20474;-72
2024/04/14 00:25:29;;;;;;;2.33;2.13;;;19.40;99.90;;;;;;5488834;25;20537;-72
2024/04/14 00:27:58;;;;;;;2.57;2.37;;;19.40;99.90;;;;;;5474169;25;20770;-72
2024/04/14 00:30:24;;;;;;;5.07;4.57;;;19.40;99.90;;;;;;5432123;25;20608;-72
2024/04/14 00:32:55;;;;;;;4.60;3.80;;;19.40;99.90;;;;;;5425452;25;20592;-72
2024/04/14 00:35:21;;;;;;;3.57;2.70;;;19.40;99.90;;;;;;5416657;26;20532;-72
2024/04/14 00:37:50;;;;;;;8.23;7.43;;;19.40;99.90;;;;;;5440380;25;20483;-72
2024/04/14 00:40:19;;;;;;;3.67;3.37;;;19.40;99.90;;;;;;5452547;25;20578;-72
2024/04/14 00:42:48;;;;;;;3.37;2.50;;;19.30;99.90;;;;;;5452316;25;20535;-72
2024/04/14 00:45:14;;;;;;;2.80;2.60;;;19.30;99.90;;;;;;5449729;26;20523;-72
2024/04/14 00:47:44;;;;;;;2.70;2.50;;;19.30;99.90;;;;;;5452474;26;20466;-72
2024/04/14 00:50:10;;;;;;;2.50;2.30;;;19.30;99.90;;;;;;5452375;26;20948;-72
2024/04/14 00:52:39;;;;;;;2.90;2.13;;;19.30;99.90;;;;;;5451924;26;20528;-72
2024/04/14 00:55:08;;;;;;;2.50;2.30;;;19.30;99.90;;;;;;5452690;26;20471;-72
2024/04/14 00:57:41;;;;;;;2.93;2.60;;;19.30;99.90;;;;;;5452260;26;20471;-72
2024/04/14 01:00:09;;;;;;;2.90;2.70;;;19.30;99.90;;;;;;5446984;26;20539;-72
2024/04/14 01:02:38;;;;;;;3.20;2.87;;;19.30;99.90;;;;;;5463771;25;20518;-72
2024/04/14 01:05:04;;;;;;;7.07;5.97;;;19.30;99.90;;;;;;5489275;25;20485;-71
2024/04/14 01:07:34;;;;;;;6.07;5.67;;;19.30;99.90;;;;;;5469326;25;20478;-72
2024/04/14 01:10:00;;;;;;;4.90;4.40;;;19.30;99.90;;;;;;5456133;26;20619;-72
2024/04/14 01:12:29;;;;;;;8.63;5.53;;;19.30;99.90;;;;;;5460551;26;20952;-71
2024/04/14 01:14:57;;;;;;;4.03;3.70;;;19.30;99.90;;;;;;5492342;26;20617;-72
2024/04/14 01:17:26;;;;;;;3.80;3.50;;;19.30;99.90;;;;;;5490950;25;20608;-72
2024/04/14 01:19:52;;;;;;;4.37;3.20;;;19.30;99.90;;;;;;5492378;25;20541;-72
2024/04/14 01:22:23;;;;;;;2.37;2.27;;;19.30;99.90;;;;;;5491567;25;20578;-72
2024/04/14 01:24:50;;;;;;;3.97;2.87;;;19.30;99.90;;;;;;5492379;25;20561;-72
2024/04/14 01:27:21;;;;;;;3.77;2.87;;;19.30;99.90;;;;;;5492265;25;20473;-72
2024/04/14 01:29:47;;;;;;;4.60;4.20;;;19.20;99.90;;;;;;5492189;25;20533;-72
2024/04/14 01:32:16;;;;;;;2.77;2.57;;;19.20;99.90;;;;;;5491847;25;20571;-72
2024/04/14 01:34:41;;;;;;;2.70;2.23;;;19.20;99.90;;;;;;5492172;25;20624;-72
2024/04/14 01:37:10;;;;;;;4.87;4.43;;;19.20;99.90;;;;;;5460640;25;20485;-72
2024/04/14 01:39:36;;;;;;;3.60;3.27;;;19.20;99.90;;;;;;5434440;26;20539;-72
2024/04/14 01:42:05;;;;;;;2.97;2.37;;;19.20;99.90;;;;;;5432140;26;21063;-72
2024/04/14 01:44:33;;;;;;;3.30;2.97;;;19.20;99.90;;;;;;5425565;26;20613;-72
2024/04/14 01:47:02;;;;;;;2.97;2.70;;;19.20;99.90;;;;;;5429450;26;20480;-72
2024/04/14 01:49:28;;;;;;;3.77;3.37;;;19.20;99.90;;;;;;5434375;26;20555;-72
2024/04/14 01:51:56;;;;;;;3.10;2.80;;;19.20;99.90;;;;;;5434613;26;20473;-72
2024/04/14 01:54:22;;;;;;;6.40;4.83;;;19.20;99.90;;;;;;5433980;26;20555;-72
2024/04/14 01:56:51;;;;;;;4.50;4.10;;;19.20;99.90;;;;;;5449976;26;20948;-72
2024/04/14 01:59:17;;;;;;;3.93;3.57;;;19.20;99.90;;;;;;5454856;26;20550;-72
2024/04/14 02:01:48;;;;;;;5.00;3.60;;;19.20;99.90;;;;;;5455436;26;21075;-72
2024/04/14 02:04:14;;;;;;;4.80;4.30;;;19.20;99.90;;;;;;5455674;26;20612;-72
2024/04/14 02:06:45;;;;;;;7.77;7.00;;;19.20;99.90;;;;;;5454425;26;20779;-72
2024/04/14 02:09:11;;;;;;;5.07;3.73;;;19.20;99.90;;;;;;5455211;25;20595;-72
2024/04/14 02:11:43;;;;;;;11.47;8.30;;;19.30;99.90;;;;;;5454737;25;20467;-72
2024/04/14 02:14:09;;;;;;;7.17;6.00;;;19.30;99.90;;;;;;5485139;25;20482;-72
2024/04/14 02:16:37;;;;;;;15.53;13.60;;;19.30;99.90;;;;;;5481459;25;20957;-72
2024/04/14 02:19:06;;;;;;;14.07;12.63;;;19.30;99.90;;;;;;5454417;25;20565;-72
2024/04/14 02:21:34;;;;;;;8.80;7.90;;;19.30;99.90;;;;;;5454769;25;20606;-72
2024/04/14 02:24:00;;;;;;;8.13;7.33;;;19.40;99.90;;;;;;5455209;25;21109;-72
2024/04/14 02:26:29;;;;;;;9.30;8.43;;;19.40;99.90;;;;;;5434221;25;20493;-72
2024/04/14 02:28:55;;;;;;;15.87;14.23;;;19.40;99.90;;;;;;5419360;26;20548;-72
2024/04/14 02:31:24;;;;;;;15.00;13.50;;;19.50;99.90;;;;;;5419052;26;20575;-72
2024/04/14 02:33:50;;;;;;;9.53;8.57;;;19.50;99.90;;;;;;5439482;25;20573;-72
2024/04/14 02:36:26;;;;;;;8.63;7.80;;;19.50;99.90;;;;;;5449877;25;20479;-72
2024/04/14 02:38:52;;;;;;;10.40;8.30;;;19.60;99.90;;;;;;5454352;26;20478;-72
2024/04/14 02:41:21;;;;;;;19.53;17.47;;;19.60;99.90;;;;;;5429873;26;20554;-72
2024/04/14 02:43:48;;;;;;;21.23;16.73;;;19.60;99.90;;;;;;5454388;26;20546;-72
2024/04/14 02:46:16;;;;;;;13.17;11.50;;;19.70;99.90;;;;;;5454058;26;20479;-72
2024/04/14 02:48:48;;;;;;;12.20;10.80;;;19.70;99.90;;;;;;5454880;26;20551;-72
2024/04/14 02:51:16;;;;;;;13.93;12.53;;;19.70;99.90;;;;;;5453459;26;20482;-72
2024/04/14 02:53:45;;;;;;;14.37;12.87;;;19.70;99.90;;;;;;5454067;26;20914;-72
2024/04/14 02:56:13;;;;;;;12.10;10.90;;;19.70;99.90;;;;;;5454169;26;20475;-72
2024/04/14 02:58:39;;;;;;;8.43;7.63;;;19.70;99.90;;;;;;5454183;25;20528;-72
2024/04/14 03:01:10;;;;;;;24.83;20.13;;;19.80;99.90;;;;;;5451832;25;20522;-72
2024/04/14 03:03:36;;;;;;;21.77;19.43;;;19.70;99.90;;;;;;5453988;25;20482;-72
2024/04/14 03:06:07;;;;;;;17.93;16.13;;;19.80;99.90;;;;;;5454145;25;20952;-72
2024/04/14 03:08:33;;;;;;;38.60;34.50;;;19.80;99.90;;;;;;5452455;25;20683;-72
2024/04/14 03:11:06;;;;;;;17.20;15.40;;;19.70;99.90;;;;;;5454746;25;20570;-72
2024/04/14 03:13:32;;;;;;;34.37;27.90;;;19.70;99.90;;;;;;5490179;25;20519;-72
2024/04/14 03:16:04;;;;;;;46.97;37.57;;;19.70;99.90;;;;;;5490921;25;20473;-72
2024/04/14 03:18:30;;;;;;;36.53;32.53;;;19.70;99.90;;;;;;5490590;25;20624;-72
2024/04/14 03:20:59;;;;;;;27.53;23.97;;;19.80;99.90;;;;;;5490880;25;20462;-72
2024/04/14 03:23:26;;;;;;;28.30;24.40;;;19.80;99.90;;;;;;5489403;25;20537;-72
2024/04/14 03:25:57;;;;;;;18.37;16.43;;;19.70;99.90;;;;;;5491018;25;20545;-72
2024/04/14 03:28:26;;;;;;;13.63;12.30;;;19.80;99.90;;;;;;5490127;25;20549;-72
2024/04/14 03:31:00;;;;;;;11.27;10.10;;;19.70;99.90;;;;;;5490408;25;20916;-72
2024/04/14 03:33:26;;;;;;;11.77;10.57;;;19.70;99.90;;;;;;5490326;25;20545;-72
2024/04/14 03:36:03;;;;;;;14.53;12.60;;;19.70;99.90;;;;;;5490604;25;20486;-72
2024/04/14 03:38:32;;;;;;;16.50;13.83;;;19.70;99.90;;;;;;5489989;25;20473;-72
2024/04/14 03:41:00;;;;;;;12.43;11.00;;;19.60;99.90;;;;;;5490492;25;21078;-72
2024/04/14 03:43:32;;;;;;;9.47;8.60;;;19.70;99.90;;;;;;5489945;25;20609;-72
2024/04/14 03:46:00;;;;;;;9.90;7.00;;;19.60;99.90;;;;;;5490598;25;20588;-72
2024/04/14 03:48:29;;;;;;;15.77;11.90;;;19.60;99.90;;;;;;5489846;25;20606;-72
2024/04/14 03:50:55;;;;;;;17.00;14.20;;;19.60;99.90;;;;;;5490696;25;20549;-72
2024/04/14 03:53:23;;;;;;;15.23;13.63;;;19.60;99.90;;;;;;5489815;25;20919;-72
2024/04/14 03:55:49;;;;;;;6.50;5.90;;;19.60;99.90;;;;;;5490174;25;20595;-72
2024/04/14 03:58:18;;;;;;;9.70;8.53;;;19.60;99.90;;;;;;5489796;25;20490;-72
2024/04/14 04:00:46;;;;;;;10.40;9.50;;;19.60;99.90;;;;;;5490140;25;20621;-73
2024/04/14 04:03:15;;;;;;;51.80;35.53;;;19.50;99.90;;;;;;5489603;25;21065;-72
2024/04/14 04:05:41;;;;;;;15.13;13.07;;;19.50;99.90;;;;;;5489977;25;21113;-72
2024/04/14 04:08:09;;;;;;;17.90;12.33;;;19.50;99.90;;;;;;5489974;25;20489;-71
2024/04/14 04:10:38;;;;;;;9.33;8.40;;;19.40;99.90;;;;;;5489699;25;20780;-72
2024/04/14 04:13:04;;;;;;;8.50;7.70;;;19.40;99.90;;;;;;5489977;25;21007;-72
2024/04/14 04:15:33;;;;;;;9.97;9.00;;;19.40;99.90;;;;;;5489178;25;20579;-71
2024/04/14 04:18:01;;;;;;;9.63;8.80;;;19.40;99.90;;;;;;5489676;25;20919;-72
2024/04/14 04:20:30;;;;;;;11.40;10.10;;;19.40;99.90;;;;;;5489364;25;20943;-72
2024/04/14 04:22:56;;;;;;;9.43;8.50;;;19.40;99.90;;;;;;5489787;25;21015;-72
2024/04/14 04:25:24;;;;;;;10.00;7.27;;;19.40;99.90;;;;;;5489196;25;20571;-72
2024/04/14 04:27:50;;;;;;;13.20;11.73;;;19.30;99.90;;;;;;5489872;25;20706;-72
2024/04/14 04:30:19;;;;;;;19.07;15.23;;;19.30;99.90;;;;;;5489136;25;20939;-72
2024/04/14 04:32:45;;;;;;;19.90;14.40;;;19.30;99.90;;;;;;5489527;25;21041;-72
2024/04/14 04:35:16;;;;;;;26.40;21.60;;;19.20;99.90;;;;;;5489955;25;20466;-71
2024/04/14 04:37:42;;;;;;;16.57;14.17;;;19.20;99.90;;;;;;5489054;25;20540;-72
2024/04/14 04:40:11;;;;;;;9.17;8.33;;;19.20;99.90;;;;;;5489477;25;20890;-72
2024/04/14 04:42:37;;;;;;;11.43;9.57;;;19.20;99.90;;;;;;5492000;25;20617;-71
2024/04/14 04:45:06;;;;;;;23.47;21.03;;;19.20;99.90;;;;;;5493462;25;20920;-71
2024/04/14 04:47:32;;;;;;;9.87;8.47;;;19.10;99.90;;;;;;5492701;25;20946;-71
2024/04/14 04:50:00;;;;;;;16.70;11.80;;;19.10;99.90;;;;;;5493334;25;20514;-71
2024/04/14 04:52:29;;;;;;;18.87;13.20;;;19.00;99.90;;;;;;5492507;25;20921;-72
2024/04/14 04:54:57;;;;;;;27.00;19.93;;;19.00;99.90;;;;;;5493127;25;20915;-71
2024/04/14 04:57:23;;;;;;;12.87;11.07;;;19.00;99.90;;;;;;5492624;25;20874;-72
2024/04/14 04:59:52;;;;;;;7.00;6.30;;;19.00;99.90;;;;;;5492741;25;20481;-71
2024/04/14 05:02:18;;;;;;;7.57;4.93;;;19.00;99.90;;;;;;5492790;25;20560;-72
2024/04/14 05:04:46;;;;;;;5.73;5.23;;;18.90;99.90;;;;;;5492554;25;20473;-71
2024/04/14 05:07:15;;;;;;;21.20;18.07;;;18.90;99.90;;;;;;5492628;25;20613;-71
2024/04/14 05:09:43;;;;;;;15.00;10.63;;;18.90;99.90;;;;;;5492305;25;20545;-72
2024/04/14 05:12:15;;;;;;;10.50;8.97;;;18.90;99.90;;;;;;5492877;25;20615;-71
2024/04/14 05:14:42;;;;;;;7.70;6.90;;;18.90;99.90;;;;;;5491936;25;20481;-72
2024/04/14 05:17:10;;;;;;;6.80;6.00;;;18.90;99.90;;;;;;5492671;25;20477;-72
2024/04/14 05:19:36;;;;;;;11.17;9.90;;;18.90;99.90;;;;;;5491341;25;20548;-73
2024/04/14 05:22:08;;;;;;;30.03;21.93;;;18.90;99.90;;;;;;5492594;25;20477;-73
2024/04/14 05:24:33;;;;;;;5.13;4.30;;;18.90;99.90;;;;;;5492079;25;20995;-73
2024/04/14 05:27:07;;;;;;;15.80;11.63;;;18.90;99.90;;;;;;5492644;25;20477;-72
2024/04/14 05:29:33;;;;;;;6.40;5.40;;;18.90;99.90;;;;;;5491929;25;20485;-72
2024/04/14 05:32:01;;;;;;;6.47;4.90;;;18.80;99.90;;;;;;5492333;25;20893;-72
2024/04/14 05:34:27;;;;;;;8.07;7.23;;;18.90;99.90;;;;;;5491752;25;20608;-73
2024/04/14 05:36:56;;;;;;;8.17;6.17;;;18.80;99.90;;;;;;5492213;25;20485;-72
2024/04/14 05:39:22;;;;;;;4.57;4.17;;;18.80;99.90;;;;;;5492241;25;21027;-71
2024/04/14 05:41:51;;;;;;;12.00;8.57;;;18.80;99.90;;;;;;5491849;25;20584;-71
2024/04/14 05:44:20;;;;;;;7.70;5.10;;;18.80;99.90;;;;;;5507886;25;21054;-73
2024/04/14 05:46:48;;;;;;;11.87;9.50;;;18.80;99.90;;;;;;5492793;25;20559;-71
2024/04/14 05:49:14;;;;;;;5.97;5.37;;;18.70;99.90;;;;;;5492387;25;20545;-72
2024/04/14 05:51:47;;;;;;;9.90;6.93;;;18.70;99.90;;;;;;5491559;25;20576;-73
2024/04/14 05:54:13;;;;;;;11.70;9.60;;;18.70;99.90;;;;;;5490601;25;20788;-72
2024/04/14 05:56:41;;;;;;;8.10;7.23;;;18.70;99.90;;;;;;5491816;25;20474;-71
2024/04/14 05:59:07;;;;;;;17.10;12.63;;;18.70;99.90;;;;;;5491848;25;21031;-72
2024/04/14 06:01:38;;;;;;;6.20;5.57;;;18.70;99.90;;;;;;5491639;25;20481;-74
2024/04/14 06:04:05;;;;;;;6.50;4.47;;;18.70;99.90;;;;;;5492264;25;20617;-71
2024/04/14 06:06:33;;;;;;;12.70;9.13;;;18.70;99.90;;;;;;5491467;25;20485;-71
2024/04/14 06:09:04;;;;;;;5.50;4.60;;;18.70;99.90;;;;;;5490697;25;21102;-75
2024/04/14 06:11:33;;;;;;;7.33;4.83;;;18.70;99.90;;;;;;5491532;25;20759;-73
2024/04/14 06:13:59;;;;;;;11.70;7.90;;;18.80;99.90;;;;;;5491800;25;20612;-71
2024/04/14 06:16:28;;;;;;;12.67;9.97;;;18.80;99.90;;;;;;5491360;25;20474;-72
2024/04/14 06:18:56;;;;;;;6.83;6.13;;;18.80;99.90;;;;;;5491152;25;20541;-72
2024/04/14 06:21:25;;;;;;;11.17;10.10;;;18.80;99.90;;;;;;5491859;25;20525;-72
2024/04/14 06:23:51;;;;;;;11.37;7.20;;;18.80;99.90;;;;;;5491208;25;21090;-72
2024/04/14 06:26:19;;;;;;;10.90;6.17;;;18.80;99.90;;;;;;5491763;25;20485;-72
2024/04/14 06:28:45;;;;;;;7.93;6.40;;;18.90;99.90;;;;;;5490825;25;21022;-71
2024/04/14 06:31:14;;;;;;;5.63;4.57;;;18.90;99.90;;;;;;5491631;25;20591;-71
2024/04/14 06:33:40;;;;;;;6.33;3.63;;;18.90;99.90;;;;;;5491252;25;20537;-71
2024/04/14 06:36:12;;;;;;;5.50;4.30;;;19.00;99.90;;;;;;5491543;25;20462;-73
2024/04/14 06:38:39;;;;;;;7.13;6.43;;;19.00;99.90;;;;;;5491385;25;20466;-73
2024/04/14 06:41:08;;;;;;;6.40;4.97;;;19.00;99.90;;;;;;5491768;25;20466;-73
2024/04/14 06:43:34;;;;;;;12.93;9.60;;;19.00;99.90;;;;;;5490767;25;20461;-73
2024/04/14 06:46:03;;;;;;;13.37;9.23;;;19.00;99.90;;;;;;5491680;25;20576;-73
2024/04/14 06:48:29;;;;;;;10.27;7.80;;;19.00;99.90;;;;;;5491078;25;20632;-73
2024/04/14 06:50:57;;;;;;;8.80;6.40;;;19.00;99.90;;;;;;5490729;25;20931;-71
2024/04/14 06:53:26;;;;;;;14.00;9.83;;;19.00;99.90;;;;;;5491330;25;20548;-72
2024/04/14 06:55:58;;;;;;;11.97;10.50;;;19.10;99.90;;;;;;5490917;25;20469;-72
2024/04/14 06:58:24;;;;;;;11.70;9.47;;;19.10;99.90;;;;;;5491179;25;20929;-73
2024/04/14 07:00:53;;;;;;;7.13;4.50;;;19.10;99.90;;;;;;5490794;25;20474;-72
2024/04/14 07:03:19;;;;;;;10.33;7.30;;;19.10;99.90;;;;;;5490415;25;20905;-73
2024/04/14 07:05:47;;;;;;;9.53;7.27;;;19.10;99.90;;;;;;5490169;25;20485;-74
2024/04/14 07:08:13;;;;;;;7.23;6.30;;;19.10;99.90;;;;;;5490974;25;20533;-72
2024/04/14 07:10:44;;;;;;;23.97;20.67;;;19.20;99.90;;;;;;5490882;25;20571;-72
2024/04/14 07:13:10;;;;;;;8.33;7.50;;;19.10;99.90;;;;;;5491154;25;20850;-72
2024/04/14 07:15:39;;;;;;;18.10;16.20;;;19.10;99.90;;;;;;5490497;25;20587;-72
2024/04/14 07:18:05;;;;;;;11.10;7.60;;;19.10;99.90;;;;;;5490526;25;20541;-73
2024/04/14 07:20:34;;;;;;;7.30;5.37;;;19.10;99.90;;;;;;5490817;25;20478;-71
2024/04/14 07:23:00;;;;;;;17.10;13.47;;;19.10;99.90;;;;;;5490607;25;21419;-73
2024/04/14 07:25:29;;;;;;;12.60;4.60;;;19.10;99.90;;;;;;5490917;25;20759;-72
2024/04/14 07:27:57;;;;;;;5.00;3.47;;;19.10;99.90;;;;;;5490290;25;20526;-72
2024/04/14 07:30:26;;;;;;;4.40;2.83;;;19.10;99.90;;;;;;5491046;25;20838;-72
2024/04/14 07:32:52;;;;;;;25.33;18.00;;;19.10;99.90;;;;;;5490487;25;20530;-71
2024/04/14 07:35:20;;;;;;;5.30;4.80;;;19.10;99.90;;;;;;5490717;25;20947;-71
2024/04/14 07:37:47;;;;;;;16.73;13.03;;;19.20;99.90;;;;;;5490562;25;21087;-71
2024/04/14 07:40:15;;;;;;;11.03;9.83;;;19.30;99.90;;;;;;5490737;25;20469;-72
2024/04/14 07:42:42;;;;;;;6.90;6.20;;;19.30;99.90;;;;;;5489866;25;20545;-72
2024/04/14 07:45:14;;;;;;;8.70;7.50;;;19.30;99.90;;;;;;5490538;25;20481;-72
2024/04/14 07:47:40;;;;;;;11.77;10.60;;;19.30;99.90;;;;;;5490143;25;20490;-72
2024/04/14 07:50:09;;;;;;;6.10;4.80;;;19.30;99.90;;;;;;5490430;25;20564;-72
2024/04/14 07:52:35;;;;;;;5.90;4.77;;;19.30;99.90;;;;;;5489504;25;20560;-72
2024/04/14 07:55:03;;;;;;;9.30;6.30;;;19.30;99.90;;;;;;5490176;25;21038;-72
2024/04/14 07:57:29;;;;;;;12.77;9.40;;;19.30;99.90;;;;;;5490142;25;20541;-72
2024/04/14 07:59:58;;;;;;;17.50;14.83;;;19.40;99.90;;;;;;5489805;25;20593;-71
2024/04/14 08:02:27;;;;;;;8.33;7.13;;;19.30;99.90;;;;;;5489988;25;21034;-73
2024/04/14 08:04:55;;;;;;;8.63;6.70;;;19.30;99.90;;;;;;5489557;25;21066;-73
2024/04/14 08:07:21;;;;;;;9.17;8.20;;;19.20;99.90;;;;;;5490121;25;20589;-72
2024/04/14 08:09:50;;;;;;;10.53;7.53;;;19.10;99.90;;;;;;5489388;25;20946;-72
2024/04/14 08:12:18;;;;;;;7.57;6.53;;;19.10;99.90;;;;;;5489902;25;20617;-71
2024/04/14 08:14:44;;;;;;;13.07;10.70;;;19.00;99.90;;;;;;5489403;25;20609;-71
2024/04/14 08:17:13;;;;;;;8.50;7.53;;;19.00;99.90;;;;;;5492076;25;20474;-72
2024/04/14 08:19:41;;;;;;;10.23;8.23;;;19.00;99.90;;;;;;5493443;25;20605;-72
2024/04/14 08:22:10;;;;;;;10.73;9.07;;;18.90;99.90;;;;;;5493216;25;20469;-73
2024/04/14 08:24:36;;;;;;;15.00;12.33;;;18.90;99.90;;;;;;5493401;25;20533;-72
2024/04/14 08:27:04;;;;;;;5.60;4.30;;;18.90;99.90;;;;;;5492816;25;20841;-73
2024/04/14 08:29:33;;;;;;;7.20;5.67;;;18.90;99.90;;;;;;5493100;25;20540;-73
2024/04/14 08:32:02;;;;;;;11.17;8.40;;;19.00;99.90;;;;;;5493145;25;20477;-72
2024/04/14 08:34:28;;;;;;;7.70;4.60;;;19.00;99.90;;;;;;5493205;25;20612;-73
2024/04/14 08:36:59;;;;;;;8.13;3.50;;;19.00;99.90;;;;;;5492900;25;20477;-73
2024/04/14 08:39:25;;;;;;;12.20;9.33;;;19.00;97.80;;;;;;5493252;25;20560;-71
2024/04/14 08:41:58;;;;;;;8.17;6.30;;;19.00;97.80;;;;;;5492786;25;20571;-73
2024/04/14 08:44:25;;;;;;;15.97;13.57;;;19.00;98.00;;;;;;5493079;25;20517;-71
2024/04/14 08:46:54;;;;;;;9.97;8.93;;;19.00;98.20;;;;;;5492699;25;20599;-73
2024/04/14 08:49:23;;;;;;;7.33;6.50;;;19.00;97.50;;;;;;5493052;25;20865;-72
2024/04/14 08:51:53;;;;;;;7.07;4.10;;;19.00;96.00;;;;;;5492699;25;20909;-73
2024/04/14 08:54:22;;;;;;;6.67;5.23;;;19.00;94.40;;;;;;5492929;25;20572;-72
2024/04/14 08:56:59;;;;;;;8.53;4.40;;;19.10;94.10;;;;;;5492711;25;20477;-73
2024/04/14 08:59:26;;;;;;;16.80;9.07;;;19.10;94.00;;;;;;5492831;25;20466;-73
2024/04/14 09:01:55;;;;;;;7.30;5.50;;;19.20;94.00;;;;;;5492574;25;20578;-72
2024/04/14 09:04:22;;;;;;;6.10;2.57;;;19.20;93.60;;;;;;5492488;25;20619;-72
2024/04/14 09:06:51;;;;;;;4.60;2.33;;;19.20;93.10;;;;;;5492125;25;21068;-72
2024/04/14 09:09:21;;;;;;;3.90;2.60;;;19.20;93.20;;;;;;5492979;25;20545;-71
2024/04/14 09:11:53;;;;;;;6.13;3.13;;;19.20;93.30;;;;;;5492471;25;20470;-71
2024/04/14 09:14:19;;;;;;;4.00;3.10;;;19.20;93.50;;;;;;5492078;25;20544;-71
2024/04/14 09:16:49;;;;;;;5.00;3.47;;;19.30;93.40;;;;;;5492088;25;20856;-73
2024/04/14 09:19:17;;;;;;;9.13;4.10;;;19.30;93.50;;;;;;5491488;25;20915;-73
2024/04/14 09:21:46;;;;;;;4.90;2.97;;;19.40;93.50;;;;;;5492449;25;20477;-72
2024/04/14 09:24:12;;;;;;;4.70;2.07;;;19.40;93.10;;;;;;5492170;25;20473;-72
2024/04/14 09:26:44;;;;;;;8.57;6.50;;;19.40;92.10;;;;;;5491971;25;20482;-73
2024/04/14 09:29:09;;;;;;;4.23;2.57;;;19.40;91.70;;;;;;5491818;25;20963;-73
2024/04/14 09:31:39;;;;;;;5.57;4.57;;;19.40;90.90;;;;;;5492495;25;20526;-73
2024/04/14 09:34:05;;;;;;;7.10;6.40;;;19.40;90.90;;;;;;5492114;25;20541;-73
2024/04/14 09:36:34;;;;;;;5.20;2.70;;;19.40;90.70;;;;;;5492096;25;20572;-72
2024/04/14 09:39:03;;;;;;;10.20;9.20;;;19.50;90.60;;;;;;5491879;25;20613;-73
2024/04/14 09:41:32;;;;;;;5.77;4.83;;;19.50;90.80;;;;;;5492252;25;20473;-72
2024/04/14 09:44:02;;;;;;;6.30;4.87;;;19.50;90.50;;;;;;5491670;25;20603;-71
2024/04/14 09:46:32;;;;;;;5.70;5.00;;;19.50;90.50;;;;;;5492330;25;21057;-72
2024/04/14 09:49:00;;;;;;;5.00;4.20;;;19.50;90.70;;;;;;5491939;25;20521;-72
2024/04/14 09:51:33;;;;;;;2.97;2.60;;;19.50;90.90;;;;;;5492208;25;20568;-72
2024/04/14 09:53:59;;;;;;;5.80;3.10;;;19.50;91.00;;;;;;5491622;25;20601;-72
2024/04/14 09:56:30;;;;;;;4.30;3.90;;;19.50;91.30;;;;;;5492106;25;20576;-73
2024/04/14 09:58:56;;;;;;;3.90;2.30;;;19.50;91.50;;;;;;5491562;25;20604;-72
2024/04/14 10:01:33;;;;;;;2.83;2.07;;;19.50;92.10;;;;;;5492103;25;20474;-73
2024/04/14 10:04:00;;;;;;;8.13;5.63;;;19.50;91.80;;;;;;5491473;25;20836;-73
2024/04/14 10:06:31;;;;;;;3.57;2.63;;;19.50;91.60;;;;;;5491728;25;20470;-73
2024/04/14 10:08:57;;;;;;;6.63;3.67;;;19.50;91.40;;;;;;5491259;25;20537;-73
2024/04/14 10:11:26;;;;;;;3.40;2.87;;;19.40;91.20;;;;;;5491971;25;20843;-72
2024/04/14 10:13:54;;;;;;;6.40;4.97;;;19.50;90.80;;;;;;5491688;25;20473;-73
2024/04/14 10:16:23;;;;;;;6.03;2.80;;;19.50;90.80;;;;;;5491168;25;20580;-73
2024/04/14 10:18:52;;;;;;;2.30;1.87;;;19.50;90.60;;;;;;5491972;25;20920;-73
2024/04/14 10:21:22;;;;;;;12.23;8.70;;;19.60;90.30;;;;;;5491418;25;20466;-73
2024/04/14 10:23:49;;;;;;;4.30;3.30;;;19.50;90.50;;;;;;5490444;25;20477;-73
2024/04/14 10:26:18;;;;;;;10.40;5.17;;;19.50;90.60;;;;;;5491149;25;20512;-73
2024/04/14 10:28:51;;;;;;;5.30;4.60;;;19.50;90.20;;;;;;5491700;25;20470;-72
2024/04/14 10:31:28;;;;;;;17.63;14.03;;;19.50;89.00;;;;;;5491098;25;20537;-73
2024/04/14 10:34:04;;;;;;;9.70;6.07;;;19.60;88.50;;;;;;5491668;25;20560;-72
2024/04/14 10:36:33;;;;;;;4.73;3.63;;;19.60;87.10;;;;;;5491237;25;20469;-72
2024/04/14 10:38:59;;;;;;;3.70;3.17;;;19.50;83.00;;;;;;5490453;25;20613;-73
2024/04/14 10:41:28;;;;;;;5.10;3.17;;;19.50;81.10;;;;;;5490987;25;20485;-73
2024/04/14 10:43:54;;;;;;;3.17;2.87;;;19.50;78.50;;;;;;5491063;25;20621;-72
2024/04/14 10:46:23;;;;;;;20.83;18.50;;;19.60;77.80;;;;;;5490973;25;20473;-73
2024/04/14 10:48:49;;;;;;;6.40;5.00;;;19.50;78.80;;;;;;5491501;25;20528;-73
2024/04/14 10:51:21;;;;;;;3.90;2.57;;;19.60;77.30;;;;;;5490873;25;20588;-73
2024/04/14 10:53:48;;;;;;;4.37;2.90;;;19.50;75.90;;;;;;5491367;25;20637;-73
2024/04/14 10:56:17;;;;;;;4.30;3.07;;;19.50;72.10;;;;;;5490650;25;20469;-73
2024/04/14 10:58:42;;;;;;;4.80;3.67;;;19.40;73.00;;;;;;5491271;25;20545;-73
2024/04/14 11:01:12;;;;;;;7.10;4.03;;;19.40;73.60;;;;;;5490772;25;20564;-73
2024/04/14 11:03:38;;;;;;;4.13;1.97;;;19.40;74.50;;;;;;5490889;25;20536;-73
2024/04/14 11:06:07;;;;;;;4.53;2.53;;;19.40;76.20;;;;;;5491357;25;20584;-73
2024/04/14 11:08:38;;;;;;;4.90;3.50;;;19.50;78.00;;;;;;5475649;25;21059;-72
2024/04/14 11:11:07;;;;;;;13.70;11.23;;;19.50;78.60;;;;;;5490894;25;20473;-73
2024/04/14 11:13:34;;;;;;;4.40;2.83;;;19.50;79.10;;;;;;5490456;25;20544;-73
2024/04/14 11:16:03;;;;;;;4.27;3.07;;;19.50;79.70;;;;;;5490877;25;20521;-73
2024/04/14 11:18:29;;;;;;;8.30;4.53;;;19.40;79.10;;;;;;5490217;25;20855;-73
2024/04/14 11:20:58;;;;;;;4.50;3.10;;;19.40;78.00;;;;;;5491145;25;20954;-73
2024/04/14 11:23:24;;;;;;;3.63;1.93;;;19.40;77.00;;;;;;5490517;25;20553;-72
2024/04/14 11:25:56;;;;;;;6.80;4.23;;;19.40;73.50;;;;;;5490672;25;20473;-73
2024/04/14 11:28:22;;;;;;;4.53;3.10;;;19.40;71.60;;;;;;5490033;25;20548;-73
2024/04/14 11:30:51;;;;;;;4.67;2.40;;;19.40;72.80;;;;;;5490812;25;20469;-73
2024/04/14 11:33:21;;;;;;;3.00;2.67;;;19.30;72.90;;;;;;5490323;25;20533;-72
2024/04/14 11:35:51;;;;;;;4.47;2.20;;;19.30;72.10;;;;;;5490698;25;20534;-72
2024/04/14 11:38:17;;;;;;;5.47;2.40;;;19.30;70.50;;;;;;5490228;25;20607;-72
2024/04/14 11:40:46;;;;;;;5.17;1.67;;;19.30;69.80;;;;;;5490346;25;20975;-72
2024/04/14 11:43:14;;;;;;;4.03;3.27;;;19.30;68.60;;;;;;5489746;25;21041;-72
2024/04/14 11:45:50;;;;;;;5.83;4.47;;;19.30;68.50;;;;;;5490459;25;20462;-72
2024/04/14 11:48:17;;;;;;;2.40;2.20;;;19.40;69.20;;;;;;5489877;25;20534;-72
2024/04/14 11:50:46;;;;;;;9.30;2.60;;;19.40;67.90;;;;;;5490139;25;20560;-72
2024/04/14 11:53:12;;;;;;;2.00;1.50;;;19.50;67.00;;;;;;5490354;25;20847;-73
2024/04/14 11:55:40;;;;;;;2.40;2.03;;;19.40;65.20;;;;;;5490079;25;20596;-73
2024/04/14 11:58:06;;;;;;;7.40;4.23;;;19.40;65.60;;;;;;5490121;25;20633;-73
2024/04/14 12:00:37;;;;;;;2.63;1.57;;;19.40;66.60;;;;;;5489686;25;20943;-73
2024/04/14 12:03:04;;;;;;;2.77;1.90;;;19.40;67.10;;;;;;5489937;25;20583;-73
2024/04/14 12:05:32;;;;;;;3.73;2.50;;;19.50;67.00;;;;;;5489645;25;20558;-73
2024/04/14 12:07:58;;;;;;;4.47;2.00;;;19.50;65.60;;;;;;5490124;25;20549;-73
2024/04/14 12:10:27;;;;;;;5.87;2.87;;;19.40;64.20;;;;;;5489494;25;20580;-73
2024/04/14 12:12:53;;;;;;;4.50;2.90;;;19.40;64.30;;;;;;5489863;25;20473;-73
2024/04/14 12:15:21;;;;;;;4.73;2.40;;;19.40;64.10;;;;;;5489422;25;20466;-72
2024/04/14 12:17:50;;;;;;;6.27;2.00;;;19.40;63.00;;;;;;5489853;25;20541;-72
2024/04/14 12:20:19;;;;;;;2.83;2.00;;;19.40;63.10;;;;;;5489452;25;20525;-73
2024/04/14 12:22:44;;;;;;;5.60;3.07;;;19.40;58.20;;;;;;5490160;25;20579;-72
2024/04/14 12:25:13;;;;;;;6.37;4.77;;;19.40;55.60;;;;;;5489839;25;20481;-73
2024/04/14 12:27:39;;;;;;;6.37;3.83;;;19.40;55.60;;;;;;5489311;25;20923;-72
2024/04/14 12:30:09;;;;;;;6.70;5.90;;;19.40;54.30;;;;;;5489983;25;20490;-73
2024/04/14 12:32:35;;;;;;;3.53;3.20;;;19.40;54.40;;;;;;5489009;25;20508;-73
2024/04/14 12:35:07;;;;;;;3.90;2.83;;;19.50;54.70;;;;;;5489786;25;20477;-73
2024/04/14 12:37:33;;;;;;;1.90;1.53;;;19.40;55.10;;;;;;5488805;25;20521;-73
2024/04/14 12:40:02;;;;;;;7.53;5.93;;;19.50;55.40;;;;;;5489366;25;20473;-73
2024/04/14 12:42:28;;;;;;;4.40;3.03;;;19.50;56.10;;;;;;5489097;25;20910;-73
2024/04/14 12:44:57;;;;;;;1.70;1.57;;;19.50;55.20;;;;;;5489521;25;20489;-72